createdAt,value
2022-12-03T00:00:11.813Z,24.05
2022-12-03T00:02:39.884Z,24.73
2022-12-03T00:05:07.341Z,24.95
2022-12-03T00:07:36.065Z,24.00
2022-12-03T00:10:05.092Z,25.17
2022-12-03T00:12:32.734Z,24.33
2022-12-03T00:15:00.432Z,23.90
2022-12-03T00:17:27.797Z,25.88
2022-12-03T00:19:55.076Z,24.13
2022-12-03T00:22:22.247Z,24.42
2022-12-03T00:24:49.702Z,25.38
2022-12-03T00:27:16.964Z,25.17
2022-12-03T00:29:44.456Z,24.38
2022-12-03T00:32:11.971Z,23.92
2022-12-03T00:34:39.176Z,25.42
2022-12-03T00:37:06.613Z,25.63
2022-12-03T00:39:34.401Z,22.95
2022-12-03T00:42:01.672Z,25.75
2022-12-03T00:44:28.900Z,26.02
2022-12-03T00:46:56.216Z,24.98
2022-12-03T00:49:23.501Z,25.00
2022-12-03T00:51:50.874Z,25.33
2022-12-03T00:54:18.259Z,26.02
2022-12-03T00:56:45.450Z,24.63
2022-12-03T00:59:12.878Z,23.92
2022-12-03T01:01:41.067Z,25.10
2022-12-03T01:04:08.485Z,25.83
2022-12-03T01:06:35.811Z,27.20
2022-12-03T01:09:03.585Z,26.10
2022-12-03T01:11:40.830Z,25.90
2022-12-03T01:14:15.389Z,25.25
2022-12-03T01:16:43.369Z,25.48
2022-12-03T01:19:15.907Z,25.55
2022-12-03T01:21:45.026Z,25.90
2022-12-03T01:24:12.422Z,25.38
2022-12-03T01:26:39.774Z,25.95
2022-12-03T01:29:07.650Z,25.90
2022-12-03T01:31:53.345Z,25.70
2022-12-03T01:34:20.881Z,25.42
2022-12-03T01:36:48.234Z,25.63
2022-12-03T01:39:15.592Z,25.80
2022-12-03T01:41:42.835Z,26.17
2022-12-03T01:44:30.588Z,25.67
2022-12-03T01:47:00.203Z,25.55
2022-12-03T01:49:39.832Z,25.60
2022-12-03T01:52:17.461Z,26.55
2022-12-03T01:54:53.983Z,25.77
2022-12-03T01:57:41.518Z,25.55
2022-12-03T02:00:17.686Z,27.08
2022-12-03T02:02:45.653Z,24.38
2022-12-03T02:05:22.547Z,25.95
2022-12-03T02:07:50.340Z,26.33
2022-12-03T02:10:21.151Z,24.67
2022-12-03T02:12:51.571Z,26.63
2022-12-03T02:15:18.925Z,25.08
2022-12-03T02:17:46.426Z,24.13
2022-12-03T02:20:15.113Z,23.33
2022-12-03T02:22:53.156Z,25.92
2022-12-03T02:25:29.372Z,24.25
2022-12-03T02:27:56.679Z,25.50
2022-12-03T02:30:26.137Z,25.83
2022-12-03T02:32:54.906Z,25.45
2022-12-03T02:35:24.775Z,24.52
2022-12-03T02:38:00.274Z,23.75
2022-12-03T02:40:30.930Z,22.23
2022-12-03T02:43:01.419Z,26.40
2022-12-03T02:45:38.767Z,25.40
2022-12-03T02:48:19.669Z,24.35
2022-12-03T02:50:52.677Z,25.42
2022-12-03T02:53:26.818Z,24.35
2022-12-03T02:55:56.037Z,24.50
2022-12-03T02:58:24.743Z,25.15
2022-12-03T03:00:54.229Z,24.85
2022-12-03T03:03:23.712Z,24.95
2022-12-03T03:05:51.783Z,24.95
2022-12-03T03:08:20.200Z,26.92
2022-12-03T03:10:48.066Z,25.77
2022-12-03T03:13:17.961Z,25.42
2022-12-03T03:15:45.642Z,25.38
2022-12-03T03:18:14.430Z,25.70
2022-12-03T03:20:42.114Z,25.20
2022-12-03T03:23:12.412Z,22.98
2022-12-03T03:25:42.546Z,24.60
2022-12-03T03:28:10.537Z,25.02
2022-12-03T03:30:40.272Z,26.25
2022-12-03T03:33:07.965Z,25.02
2022-12-03T03:35:36.376Z,24.45
2022-12-03T03:38:04.458Z,26.30
2022-12-03T03:40:31.948Z,25.98
2022-12-03T03:43:00.859Z,24.77
2022-12-03T03:45:29.533Z,26.38
2022-12-03T03:47:59.102Z,26.52
2022-12-03T03:50:29.553Z,26.63
2022-12-03T03:52:59.053Z,25.63
2022-12-03T03:55:26.462Z,24.67
2022-12-03T03:57:53.721Z,26.63
2022-12-03T04:00:21.006Z,24.23
2022-12-03T04:02:48.225Z,26.23
2022-12-03T04:05:20.828Z,26.05
2022-12-03T04:07:48.218Z,26.77
2022-12-03T04:10:34.902Z,25.55
2022-12-03T04:13:02.422Z,24.77
2022-12-03T04:15:30.084Z,25.38
2022-12-03T04:18:15.942Z,24.80
2022-12-03T04:20:43.255Z,24.90
2022-12-03T04:23:10.621Z,25.65
2022-12-03T04:25:56.473Z,26.80
2022-12-03T04:28:42.278Z,25.52
2022-12-03T04:31:28.026Z,26.17
2022-12-03T04:34:13.901Z,26.08
2022-12-03T04:36:41.101Z,25.35
2022-12-03T04:39:08.353Z,26.77
2022-12-03T04:41:35.524Z,25.67
2022-12-03T04:44:21.490Z,24.63
2022-12-03T04:46:48.801Z,24.65
2022-12-03T04:49:16.057Z,26.20
2022-12-03T04:51:43.269Z,24.35
2022-12-03T04:54:10.470Z,26.13
2022-12-03T04:56:37.698Z,26.30
2022-12-03T04:59:05.012Z,26.02
2022-12-03T05:01:32.353Z,24.92
2022-12-03T05:03:59.849Z,25.15
2022-12-03T05:06:27.081Z,24.67
2022-12-03T05:08:54.426Z,25.15
2022-12-03T05:11:21.664Z,25.30
2022-12-03T05:13:48.891Z,24.13
2022-12-03T05:16:16.183Z,24.70
2022-12-03T05:18:43.432Z,26.63
2022-12-03T05:21:10.719Z,24.75
2022-12-03T05:23:37.900Z,25.10
2022-12-03T05:26:05.158Z,26.33
2022-12-03T05:28:34.144Z,25.63
2022-12-03T05:31:01.432Z,24.58
2022-12-03T05:33:28.720Z,25.58
2022-12-03T05:35:56.036Z,26.08
2022-12-03T05:38:23.342Z,24.33
2022-12-03T05:40:50.584Z,25.02
2022-12-03T05:43:17.857Z,24.40
2022-12-03T05:45:45.273Z,25.05
2022-12-03T05:48:15.975Z,24.80
2022-12-03T05:50:45.690Z,24.30
2022-12-03T05:53:17.452Z,26.42
2022-12-03T05:55:44.713Z,27.50
2022-12-03T05:58:12.096Z,25.88
2022-12-03T06:00:42.854Z,23.80
2022-12-03T06:03:11.024Z,26.57
2022-12-03T06:05:38.559Z,24.02
2022-12-03T06:08:05.981Z,24.55
2022-12-03T06:10:33.375Z,25.25
2022-12-03T06:13:01.052Z,24.73
2022-12-03T06:15:28.417Z,24.20
2022-12-03T06:17:55.741Z,24.45
2022-12-03T06:20:22.994Z,22.80
2022-12-03T06:22:50.213Z,25.02
2022-12-03T06:25:17.767Z,23.92
2022-12-03T06:27:45.157Z,23.55
2022-12-03T06:30:14.421Z,24.50
2022-12-03T06:32:41.761Z,25.20
2022-12-03T06:35:09.603Z,25.50
2022-12-03T06:37:36.826Z,25.45
2022-12-03T06:40:04.508Z,24.10
2022-12-03T06:42:31.736Z,25.23
2022-12-03T06:44:58.948Z,25.17
2022-12-03T06:47:26.144Z,24.55
2022-12-03T06:49:53.397Z,24.48
2022-12-03T06:52:20.696Z,24.40
2022-12-03T06:54:47.905Z,23.73
2022-12-03T06:57:15.319Z,23.77
2022-12-03T06:59:42.626Z,24.52
2022-12-03T07:02:11.652Z,22.13
2022-12-03T07:04:42.121Z,23.67
2022-12-03T07:07:13.402Z,24.35
2022-12-03T07:09:40.676Z,23.67
2022-12-03T07:12:07.930Z,24.50
2022-12-03T07:14:35.261Z,24.13
2022-12-03T07:17:02.536Z,25.90
2022-12-03T07:19:32.811Z,25.92
2022-12-03T07:22:00.779Z,24.58
2022-12-03T07:24:28.332Z,25.30
2022-12-03T07:26:55.634Z,23.83
2022-12-03T07:29:22.940Z,23.48
2022-12-03T07:31:50.417Z,25.33
2022-12-03T07:34:17.889Z,34.00
2022-12-03T07:36:45.090Z,26.38
2022-12-03T07:39:12.816Z,25.38
2022-12-03T07:41:40.060Z,25.50
2022-12-03T07:44:12.565Z,24.67
2022-12-03T07:46:42.381Z,23.70
2022-12-03T07:49:09.839Z,23.90
2022-12-03T07:51:37.159Z,25.05
2022-12-03T07:54:05.142Z,22.92
2022-12-03T07:56:32.550Z,23.90
2022-12-03T07:58:59.895Z,24.20
2022-12-03T08:01:27.384Z,22.80
2022-12-03T08:03:54.722Z,22.77
2022-12-03T08:06:21.963Z,22.48
2022-12-03T08:08:49.282Z,23.73
2022-12-03T08:11:16.578Z,23.98
2022-12-03T08:13:43.842Z,22.27
2022-12-03T08:16:18.630Z,23.58
2022-12-03T08:18:47.778Z,22.70
2022-12-03T08:21:17.834Z,23.45
2022-12-03T08:23:45.492Z,25.15
2022-12-03T08:26:18.083Z,25.23
2022-12-03T08:28:45.943Z,24.52
2022-12-03T08:31:19.933Z,25.23
2022-12-03T08:33:49.556Z,26.33
2022-12-03T08:36:24.280Z,23.50
2022-12-03T08:38:57.180Z,24.95
2022-12-03T08:41:43.054Z,25.52
2022-12-03T08:44:29.947Z,25.35
2022-12-03T08:47:09.484Z,24.00
2022-12-03T08:49:37.771Z,23.85
2022-12-03T08:52:19.936Z,23.80
2022-12-03T08:57:33.249Z,24.00
2022-12-03T09:00:19.900Z,23.38
2022-12-03T09:02:51.330Z,23.80
2022-12-03T09:05:21.528Z,24.77
2022-12-03T09:08:04.043Z,22.15
2022-12-03T09:10:31.367Z,23.38
2022-12-03T09:12:58.558Z,25.65
2022-12-03T09:15:25.859Z,24.75
2022-12-03T09:17:53.065Z,22.95
2022-12-03T09:20:20.352Z,23.35
2022-12-03T09:22:47.643Z,21.75
2022-12-03T09:25:15.110Z,22.85
2022-12-03T09:27:42.640Z,22.05
2022-12-03T09:30:10.236Z,24.30
2022-12-03T09:32:37.502Z,22.55
2022-12-03T09:35:05.118Z,22.85
2022-12-03T09:37:32.368Z,22.58
2022-12-03T09:40:03.267Z,22.50
2022-12-03T09:42:31.004Z,23.40
2022-12-03T09:44:58.431Z,22.58
2022-12-03T09:47:25.850Z,21.90
2022-12-03T09:49:53.583Z,24.25
2022-12-03T09:52:28.110Z,22.33
2022-12-03T09:54:55.818Z,21.80
2022-12-03T09:57:23.398Z,22.58
2022-12-03T09:59:50.811Z,23.65
2022-12-03T10:02:26.570Z,23.17
2022-12-03T10:04:54.631Z,23.27
2022-12-03T10:07:23.017Z,21.85
2022-12-03T10:09:50.449Z,21.83
2022-12-03T10:12:24.572Z,21.77
2022-12-03T10:14:53.559Z,22.83
2022-12-03T10:17:21.130Z,22.27
2022-12-03T10:19:48.713Z,22.23
2022-12-03T10:22:15.915Z,21.58
2022-12-03T10:24:45.021Z,22.10
2022-12-03T10:27:30.306Z,22.40
2022-12-03T10:29:59.876Z,23.75
2022-12-03T10:32:42.054Z,20.98
2022-12-03T10:37:37.014Z,20.10
2022-12-03T10:40:09.307Z,21.08
2022-12-03T10:42:41.402Z,22.02
2022-12-03T10:47:36.207Z,19.73
2022-12-03T10:50:07.448Z,22.20
2022-12-03T10:52:34.705Z,20.20
2022-12-03T10:55:02.318Z,20.10
2022-12-03T10:57:29.540Z,20.27
2022-12-03T10:59:56.832Z,19.27
2022-12-03T11:02:24.833Z,20.55
2022-12-03T11:04:52.821Z,20.65
2022-12-03T11:07:21.906Z,21.17
2022-12-03T11:09:52.432Z,19.73
2022-12-03T11:12:37.976Z,20.05
2022-12-03T11:15:06.602Z,19.55
2022-12-03T11:17:45.053Z,20.02
2022-12-03T11:20:18.067Z,18.85
2022-12-03T11:22:54.060Z,18.45
2022-12-03T11:25:27.362Z,18.73
2022-12-03T11:28:15.667Z,19.85
2022-12-03T11:30:49.043Z,18.83
2022-12-03T11:33:22.922Z,17.77
2022-12-03T11:36:03.894Z,18.42
2022-12-03T11:38:52.974Z,18.83
2022-12-03T11:41:30.221Z,17.15
2022-12-03T11:43:59.082Z,18.67
2022-12-03T11:46:29.505Z,20.08
2022-12-03T11:48:59.648Z,18.35
2022-12-03T11:51:29.399Z,17.90
2022-12-03T11:53:59.060Z,18.42
2022-12-03T11:56:29.013Z,18.25
2022-12-03T11:59:04.656Z,18.45
2022-12-03T12:01:39.077Z,17.52
2022-12-03T12:04:26.681Z,18.10
2022-12-03T12:06:53.963Z,17.77
2022-12-03T12:09:53.830Z,17.38
2022-12-03T12:12:31.610Z,18.73
2022-12-03T12:14:59.488Z,16.52
2022-12-03T12:17:34.428Z,17.75
2022-12-03T12:20:25.747Z,17.15
2022-12-03T12:22:54.817Z,18.25
2022-12-03T12:25:41.431Z,18.48
2022-12-03T12:28:08.975Z,16.77
2022-12-03T12:30:37.204Z,18.05
2022-12-03T12:33:10.630Z,16.88
2022-12-03T12:35:37.932Z,17.75
2022-12-03T12:38:08.709Z,16.63
2022-12-03T12:40:38.994Z,14.63
2022-12-03T12:43:16.497Z,15.25
2022-12-03T12:45:47.084Z,17.35
2022-12-03T12:48:45.545Z,16.42
2022-12-03T12:51:15.558Z,15.40
2022-12-03T12:53:43.098Z,14.85
2022-12-03T12:56:27.483Z,15.65
2022-12-03T12:58:57.020Z,16.08
2022-12-03T13:01:30.461Z,16.88
2022-12-03T13:03:59.677Z,15.05
2022-12-03T13:06:30.243Z,15.48
2022-12-03T13:09:07.420Z,14.82
2022-12-03T13:11:46.090Z,14.73
2022-12-03T13:14:20.785Z,14.13
2022-12-03T13:16:50.018Z,14.38
2022-12-03T13:19:22.827Z,14.52
2022-12-03T13:21:52.691Z,14.25
2022-12-03T13:24:30.497Z,14.98
2022-12-03T13:26:59.481Z,15.13
2022-12-03T13:29:27.589Z,14.18
2022-12-03T13:32:02.353Z,14.27
2022-12-03T13:34:34.971Z,14.02
2022-12-03T13:37:02.841Z,15.40
2022-12-03T13:39:32.888Z,14.05
2022-12-03T13:42:41.054Z,13.77
2022-12-03T13:45:14.095Z,14.27
2022-12-03T13:47:58.000Z,13.45
2022-12-03T13:50:36.566Z,14.38
2022-12-03T13:53:06.822Z,16.48
2022-12-03T13:55:35.218Z,15.23
2022-12-03T13:58:02.461Z,18.85
2022-12-03T14:00:29.737Z,14.55
2022-12-03T14:02:56.957Z,15.27
2022-12-03T14:05:24.178Z,13.90
2022-12-03T14:07:51.550Z,15.10
2022-12-03T14:10:18.799Z,14.30
2022-12-03T14:12:46.050Z,15.05
2022-12-03T14:15:13.445Z,14.88
2022-12-03T14:17:40.802Z,14.52
2022-12-03T14:20:11.605Z,14.63
2022-12-03T14:22:39.319Z,13.38
2022-12-03T14:25:07.694Z,13.00
2022-12-03T14:27:34.937Z,13.13
2022-12-03T14:30:02.302Z,15.80
2022-12-03T14:32:29.558Z,15.15
2022-12-03T14:34:56.988Z,14.65
2022-12-03T14:37:24.330Z,13.40
2022-12-03T14:39:51.847Z,14.00
2022-12-03T14:42:19.463Z,13.80
2022-12-03T14:44:48.860Z,14.50
2022-12-03T14:47:18.386Z,13.38
2022-12-03T14:49:45.903Z,12.25
2022-12-03T14:52:13.204Z,12.00
2022-12-03T14:54:44.717Z,13.25
2022-12-03T14:57:13.555Z,14.50
2022-12-03T14:59:44.885Z,12.82
2022-12-03T15:02:13.272Z,16.40
2022-12-03T15:04:41.668Z,15.25
2022-12-03T15:07:09.559Z,13.57
2022-12-03T15:09:36.929Z,13.45
2022-12-03T15:12:04.803Z,13.73
2022-12-03T15:14:32.078Z,13.80
2022-12-03T15:16:59.482Z,14.85
2022-12-03T15:19:26.802Z,13.70
2022-12-03T15:21:54.096Z,12.55
2022-12-03T15:24:21.418Z,14.15
2022-12-03T15:26:49.592Z,13.75
2022-12-03T15:29:16.912Z,15.70
2022-12-03T15:31:44.657Z,15.57
2022-12-03T15:34:12.791Z,16.73
2022-12-03T15:36:42.293Z,15.63
2022-12-03T15:39:09.530Z,15.73
2022-12-03T15:41:36.962Z,13.95
2022-12-03T15:44:04.290Z,15.38
2022-12-03T15:46:31.684Z,13.43
2022-12-03T15:48:59.227Z,13.95
2022-12-03T15:51:26.422Z,13.82
2022-12-03T15:53:54.375Z,12.82
2022-12-03T15:56:21.945Z,14.48
2022-12-03T15:58:49.428Z,14.32
2022-12-03T16:01:18.508Z,14.32
2022-12-03T16:03:45.967Z,14.48
2022-12-03T16:06:14.796Z,13.95
2022-12-03T16:08:42.117Z,14.13
2022-12-03T16:11:09.425Z,13.00
2022-12-03T16:13:36.636Z,14.65
2022-12-03T16:16:04.132Z,14.60
2022-12-03T16:18:32.189Z,14.80
2022-12-03T16:20:59.416Z,19.67
2022-12-03T16:23:26.705Z,21.30
2022-12-03T16:25:53.994Z,15.45
2022-12-03T16:28:21.153Z,16.75
2022-12-03T16:30:48.480Z,17.98
2022-12-03T16:33:15.685Z,15.60
2022-12-03T16:35:43.039Z,14.02
2022-12-03T16:38:10.278Z,15.32
2022-12-03T16:40:37.563Z,14.68
2022-12-03T16:43:05.040Z,13.73
2022-12-03T16:45:50.670Z,14.50
2022-12-03T16:48:19.083Z,16.67
2022-12-03T16:50:46.390Z,18.48
2022-12-03T16:53:14.368Z,18.85
2022-12-03T16:55:41.614Z,13.45
2022-12-03T16:58:08.885Z,14.50
2022-12-03T17:00:36.337Z,14.07
2022-12-03T17:03:03.823Z,15.43
2022-12-03T17:05:31.164Z,13.68
2022-12-03T17:07:58.692Z,13.32
2022-12-03T17:10:25.996Z,14.98
2022-12-03T17:13:09.956Z,13.55
2022-12-03T17:15:37.843Z,14.32
2022-12-03T17:18:05.583Z,13.82
2022-12-03T17:20:33.572Z,16.83
2022-12-03T17:23:00.963Z,15.65
2022-12-03T17:25:28.298Z,17.15
2022-12-03T17:27:55.528Z,14.82
2022-12-03T17:30:22.923Z,13.00
2022-12-03T17:32:50.574Z,13.10
2022-12-03T17:35:18.484Z,13.13
2022-12-03T17:37:45.991Z,13.80
2022-12-03T17:40:15.528Z,13.20
2022-12-03T17:42:42.872Z,13.85
2022-12-03T17:45:10.800Z,13.73
2022-12-03T17:47:38.086Z,13.88
2022-12-03T17:50:06.077Z,14.20
2022-12-03T17:52:33.431Z,14.18
2022-12-03T17:55:25.041Z,14.88
2022-12-03T17:57:47.888Z,14.93
2022-12-03T18:00:15.364Z,15.10
2022-12-03T18:02:42.748Z,14.82
2022-12-03T18:05:10.177Z,14.43
2022-12-03T18:07:37.444Z,13.23
2022-12-03T18:10:05.294Z,14.55
2022-12-03T18:12:32.767Z,17.17
2022-12-03T18:15:00.066Z,14.63
2022-12-03T18:17:27.361Z,14.00
2022-12-03T18:19:54.831Z,15.27
2022-12-03T18:22:22.402Z,13.75
2022-12-03T18:24:51.903Z,13.93
2022-12-03T18:27:21.418Z,13.95
2022-12-03T18:29:48.744Z,14.95
2022-12-03T18:32:28.186Z,14.35
2022-12-03T18:34:56.860Z,15.68
2022-12-03T18:37:27.984Z,14.32
2022-12-03T18:39:56.372Z,13.90
2022-12-03T18:42:24.227Z,14.32
2022-12-03T18:44:54.430Z,14.30
2022-12-03T18:47:26.685Z,15.30
2022-12-03T18:49:54.851Z,20.05
2022-12-03T18:52:23.841Z,17.33
2022-12-03T18:54:51.138Z,14.77
2022-12-03T18:57:18.421Z,13.38
2022-12-03T18:59:45.692Z,14.95
2022-12-03T19:02:45.885Z,16.27
2022-12-03T19:05:07.666Z,15.02
2022-12-03T19:07:35.004Z,14.60
2022-12-03T19:10:02.381Z,14.15
2022-12-03T19:12:29.999Z,12.32
2022-12-03T19:14:57.214Z,14.30
2022-12-03T19:17:24.525Z,13.25
2022-12-03T19:19:51.933Z,15.13
2022-12-03T19:22:19.466Z,16.35
2022-12-03T19:24:46.707Z,15.25
2022-12-03T19:27:14.317Z,14.20
2022-12-03T19:29:41.789Z,14.65
2022-12-03T19:32:09.155Z,13.70
2022-12-03T19:34:36.697Z,21.67
2022-12-03T19:37:04.022Z,17.15
2022-12-03T19:39:32.034Z,14.70
2022-12-03T19:41:59.528Z,14.35
2022-12-03T19:44:26.809Z,14.20
2022-12-03T19:46:54.462Z,15.57
2022-12-03T19:49:21.705Z,15.95
2022-12-03T19:51:48.964Z,15.85
2022-12-03T19:54:17.008Z,16.02
2022-12-03T19:56:44.509Z,15.05
2022-12-03T19:59:13.428Z,15.48
2022-12-03T20:01:43.186Z,15.57
2022-12-03T20:04:11.783Z,16.90
2022-12-03T20:06:39.604Z,16.58
2022-12-03T20:09:12.786Z,15.73
2022-12-03T20:11:41.516Z,15.88
2022-12-03T20:14:13.010Z,16.85
2022-12-03T20:16:40.662Z,16.33
2022-12-03T20:19:10.242Z,15.02
2022-12-03T20:21:38.698Z,15.95
2022-12-03T20:24:07.327Z,15.70
2022-12-03T20:26:34.842Z,16.15
2022-12-03T20:29:02.277Z,15.32
2022-12-03T20:31:31.336Z,14.60
2022-12-03T20:34:00.827Z,14.32
2022-12-03T20:36:29.413Z,15.32
2022-12-03T20:38:58.975Z,15.95
2022-12-03T20:41:26.323Z,15.02
2022-12-03T20:43:53.774Z,15.00
2022-12-03T20:46:24.151Z,15.27
2022-12-03T20:48:52.022Z,14.68
2022-12-03T20:51:22.166Z,14.85
2022-12-03T20:53:49.838Z,14.10
2022-12-03T20:56:20.292Z,14.27
2022-12-03T20:58:49.081Z,14.77
2022-12-03T21:01:25.079Z,14.02
2022-12-03T21:03:54.156Z,15.63
2022-12-03T21:06:23.398Z,14.02
2022-12-03T21:08:53.394Z,14.80
2022-12-03T21:11:24.235Z,13.95
2022-12-03T21:13:52.336Z,16.20
2022-12-03T21:16:39.401Z,15.20
2022-12-03T21:19:09.752Z,15.13
2022-12-03T21:21:37.128Z,23.13
2022-12-03T21:24:04.579Z,16.75
2022-12-03T21:26:31.853Z,17.58
2022-12-03T21:28:59.120Z,16.92
2022-12-03T21:31:27.166Z,15.27
2022-12-03T21:33:56.018Z,14.95
2022-12-03T21:36:24.437Z,16.80
2022-12-03T21:38:52.337Z,15.43
2022-12-03T21:41:19.629Z,16.05
2022-12-03T21:43:47.007Z,15.15
2022-12-03T21:47:10.411Z,14.85
2022-12-03T21:49:04.534Z,15.55
2022-12-03T21:51:31.889Z,14.73
2022-12-03T21:53:59.121Z,14.90
2022-12-03T21:56:26.372Z,15.05
2022-12-03T21:58:53.624Z,14.35
2022-12-03T22:01:23.221Z,16.00
2022-12-03T22:03:51.083Z,21.65
2022-12-03T22:06:18.963Z,17.85
2022-12-03T22:08:46.801Z,14.10
2022-12-03T22:11:19.196Z,13.90
2022-12-03T22:13:46.765Z,13.48
2022-12-03T22:16:16.667Z,13.25
2022-12-03T22:18:44.095Z,13.75
2022-12-03T22:21:15.938Z,12.77
2022-12-03T22:23:43.464Z,13.32
2022-12-03T22:26:16.958Z,13.65
2022-12-03T22:28:49.032Z,14.82
2022-12-03T22:31:17.788Z,14.57
2022-12-03T22:33:48.500Z,12.75
2022-12-03T22:36:21.146Z,13.73
2022-12-03T22:38:50.699Z,14.57
2022-12-03T22:41:19.078Z,13.43
2022-12-03T22:43:47.119Z,13.77
2022-12-03T22:46:15.774Z,12.63
2022-12-03T22:48:45.192Z,12.63
2022-12-03T22:51:14.828Z,13.05
2022-12-03T22:53:42.037Z,12.57
2022-12-03T22:56:09.321Z,12.52
2022-12-03T22:58:38.347Z,12.20
2022-12-03T23:01:07.505Z,12.40
2022-12-03T23:03:35.090Z,12.13
2022-12-03T23:06:09.591Z,12.38
2022-12-03T23:08:36.821Z,13.02
2022-12-03T23:11:04.114Z,13.27
2022-12-03T23:13:31.749Z,13.25
2022-12-03T23:15:59.077Z,12.73
2022-12-03T23:18:26.436Z,14.18
2022-12-03T23:20:56.042Z,13.52
2022-12-03T23:23:25.805Z,13.60
2022-12-03T23:25:57.550Z,13.27
2022-12-03T23:28:25.963Z,14.43
2022-12-03T23:30:53.477Z,14.60
2022-12-03T23:33:21.028Z,12.82
2022-12-03T23:35:48.759Z,14.57
2022-12-03T23:38:16.011Z,16.58
2022-12-03T23:40:47.867Z,13.43
2022-12-03T23:43:16.103Z,13.63
2022-12-03T23:45:43.550Z,12.90
2022-12-03T23:48:10.799Z,13.40
2022-12-03T23:50:41.512Z,13.20
2022-12-03T23:53:09.095Z,13.90
2022-12-03T23:55:40.488Z,13.20
2022-12-03T23:58:07.880Z,13.00
